createdAt,value
2022-08-05T00:00:18.758Z,17.83
2022-08-05T00:02:50.577Z,17.90
2022-08-05T00:06:03.301Z,17.83
2022-08-05T00:08:05.422Z,17.89
2022-08-05T00:10:51.930Z,17.97
2022-08-05T00:13:18.844Z,17.89
2022-08-05T00:15:55.149Z,17.79
2022-08-05T00:18:23.318Z,17.87
2022-08-05T00:20:51.744Z,17.76
2022-08-05T00:23:44.574Z,17.28
2022-08-05T00:26:06.871Z,17.58
2022-08-05T00:28:33.725Z,17.61
2022-08-05T00:31:04.475Z,17.63
2022-08-05T00:34:54.675Z,17.63
2022-08-05T00:37:09.986Z,17.45
2022-08-05T00:39:13.416Z,17.41
2022-08-05T00:41:52.129Z,17.28
2022-08-05T00:44:23.197Z,17.32
2022-08-05T00:47:02.028Z,17.21
2022-08-05T00:49:32.847Z,17.40
2022-08-05T00:52:00.530Z,16.98
2022-08-05T00:54:28.084Z,17.31
2022-08-05T00:56:56.923Z,17.12
2022-08-05T00:59:23.928Z,17.26
2022-08-05T01:01:51.127Z,17.23
2022-08-05T01:04:19.988Z,17.02
2022-08-05T01:06:53.350Z,16.68
2022-08-05T01:09:22.682Z,17.06
2022-08-05T01:11:52.338Z,17.02
2022-08-05T01:14:36.542Z,17.04
2022-08-05T01:17:14.377Z,17.11
2022-08-05T01:20:01.406Z,17.03
2022-08-05T01:22:41.996Z,16.97
2022-08-05T01:25:53.169Z,16.92
2022-08-05T01:28:47.402Z,17.00
2022-08-05T01:31:22.805Z,16.89
2022-08-05T01:34:03.145Z,16.81
2022-08-05T01:36:35.571Z,16.90
2022-08-05T01:39:11.002Z,16.74
2022-08-05T01:41:39.532Z,16.54
2022-08-05T01:44:14.166Z,16.71
2022-08-05T01:46:46.304Z,16.68
2022-08-05T01:49:23.987Z,16.72
2022-08-05T01:51:59.411Z,16.67
2022-08-05T01:54:46.109Z,16.76
2022-08-05T01:58:10.466Z,16.74
2022-08-05T02:00:06.493Z,16.65
2022-08-05T02:02:51.071Z,16.51
2022-08-05T02:05:23.523Z,16.51
2022-08-05T02:07:59.813Z,16.50
2022-08-05T02:10:39.022Z,16.53
2022-08-05T02:13:53.370Z,16.43
2022-08-05T02:16:36.899Z,16.53
2022-08-05T02:19:27.815Z,16.42
2022-08-05T02:22:01.339Z,16.38
2022-08-05T02:24:37.071Z,16.41
2022-08-05T02:27:10.066Z,16.30
2022-08-05T02:29:59.522Z,16.53
2022-08-05T02:32:30.904Z,16.48
2022-08-05T02:35:13.695Z,16.34
2022-08-05T02:37:47.737Z,16.22
2022-08-05T02:40:21.600Z,16.12
2022-08-05T02:42:52.742Z,16.19
2022-08-05T02:45:23.807Z,16.24
2022-08-05T02:48:06.901Z,15.86
2022-08-05T02:50:43.772Z,16.13
2022-08-05T02:53:16.043Z,16.07
2022-08-05T02:55:53.912Z,16.11
2022-08-05T02:58:23.246Z,16.09
2022-08-05T03:00:56.775Z,16.12
2022-08-05T03:03:24.401Z,16.02
2022-08-05T03:06:53.703Z,15.78
2022-08-05T03:08:42.395Z,15.98
2022-08-05T03:11:56.639Z,16.07
2022-08-05T03:14:13.492Z,15.88
2022-08-05T03:16:40.852Z,15.72
2022-08-05T03:19:12.763Z,16.00
2022-08-05T03:21:54.942Z,15.70
2022-08-05T03:24:29.255Z,15.82
2022-08-05T03:26:57.882Z,15.67
2022-08-05T03:29:24.718Z,15.81
2022-08-05T03:32:12.158Z,15.98
2022-08-05T03:34:41.902Z,15.85
2022-08-05T03:37:08.998Z,15.73
2022-08-05T03:39:58.618Z,15.63
2022-08-05T03:42:27.141Z,15.55
2022-08-05T03:44:55.717Z,15.75
2022-08-05T03:47:24.255Z,15.61
2022-08-05T03:49:52.443Z,15.68
2022-08-05T03:52:38.007Z,15.67
2022-08-05T03:56:04.182Z,15.64
2022-08-05T03:58:16.510Z,15.74
2022-08-05T04:00:51.469Z,15.65
2022-08-05T04:03:28.928Z,15.64
2022-08-05T04:05:57.727Z,15.38
2022-08-05T04:08:34.997Z,15.76
2022-08-05T04:11:05.264Z,15.72
2022-08-05T04:13:49.813Z,15.63
2022-08-05T04:16:25.187Z,15.53
2022-08-05T04:18:58.000Z,15.66
2022-08-05T04:22:08.748Z,15.54
2022-08-05T04:24:18.800Z,15.69
2022-08-05T04:26:46.811Z,15.62
2022-08-05T04:29:13.571Z,15.80
2022-08-05T04:31:41.280Z,15.85
2022-08-05T04:34:31.128Z,15.82
2022-08-05T04:36:56.725Z,15.80
2022-08-05T04:39:24.093Z,15.86
2022-08-05T04:41:51.413Z,15.74
2022-08-05T04:44:29.543Z,15.76
2022-08-05T04:46:59.048Z,15.90
2022-08-05T04:49:39.118Z,15.88
2022-08-05T04:52:13.976Z,15.93
2022-08-05T04:54:42.181Z,15.83
2022-08-05T04:57:08.891Z,15.95
2022-08-05T04:59:39.380Z,15.92
2022-08-05T05:02:37.402Z,16.00
2022-08-05T05:05:02.770Z,16.02
2022-08-05T05:07:32.103Z,16.34
2022-08-05T05:10:02.176Z,16.34
2022-08-05T05:12:29.516Z,16.28
2022-08-05T05:14:56.348Z,16.27
2022-08-05T05:17:24.880Z,16.41
2022-08-05T05:20:11.470Z,16.51
2022-08-05T05:22:40.739Z,16.65
2022-08-05T05:25:16.131Z,16.59
2022-08-05T05:27:53.690Z,16.93
2022-08-05T05:30:31.087Z,17.03
2022-08-05T05:33:03.890Z,17.14
2022-08-05T05:35:44.100Z,17.36
2022-08-05T05:38:12.829Z,17.25
2022-08-05T05:40:48.302Z,17.66
2022-08-05T05:43:28.209Z,17.64
2022-08-05T05:46:03.842Z,18.08
2022-08-05T05:48:32.293Z,18.22
2022-08-05T05:51:14.765Z,18.61
2022-08-05T05:53:46.052Z,18.96
2022-08-05T05:56:32.901Z,19.31
2022-08-05T05:59:06.814Z,19.62
2022-08-05T06:01:37.416Z,19.87
2022-08-05T06:04:06.633Z,20.06
2022-08-05T06:06:34.879Z,20.42
2022-08-05T06:09:04.062Z,20.77
2022-08-05T06:11:34.635Z,20.77
2022-08-05T06:14:02.107Z,20.98
2022-08-05T06:16:33.076Z,21.65
2022-08-05T06:19:07.134Z,21.77
2022-08-05T06:21:37.815Z,21.68
2022-08-05T06:24:07.772Z,22.07
2022-08-05T06:26:51.871Z,22.04
2022-08-05T06:29:44.281Z,22.51
2022-08-05T06:32:25.128Z,22.76
2022-08-05T06:34:56.864Z,22.72
2022-08-05T06:37:56.996Z,23.16
2022-08-05T06:40:12.984Z,23.32
2022-08-05T06:42:41.079Z,23.53
2022-08-05T06:45:09.470Z,23.59
2022-08-05T06:48:37.016Z,23.99
2022-08-05T06:50:25.089Z,24.19
2022-08-05T06:52:58.424Z,24.39
2022-08-05T06:55:25.883Z,24.49
2022-08-05T06:57:57.340Z,24.88
2022-08-05T07:00:31.750Z,24.83
2022-08-05T07:03:00.104Z,25.09
2022-08-05T07:05:37.178Z,25.08
2022-08-05T07:08:05.359Z,25.30
2022-08-05T07:10:32.639Z,25.61
2022-08-05T07:13:56.768Z,25.71
2022-08-05T07:18:07.024Z,25.80
2022-08-05T07:19:10.702Z,26.02
2022-08-05T07:22:00.795Z,26.00
2022-08-05T07:24:25.298Z,26.20
2022-08-05T07:26:55.630Z,26.48
2022-08-05T07:30:22.045Z,26.73
2022-08-05T07:32:09.368Z,26.89
2022-08-05T07:34:40.465Z,26.79
2022-08-05T07:37:11.733Z,26.97
2022-08-05T07:40:26.588Z,27.19
2022-08-05T07:42:31.704Z,27.34
2022-08-05T07:45:01.131Z,27.57
2022-08-05T07:47:41.968Z,27.70
2022-08-05T07:50:09.923Z,28.10
2022-08-05T07:52:40.735Z,28.32
2022-08-05T07:55:15.800Z,28.66
2022-08-05T07:58:02.371Z,28.95
2022-08-05T08:00:30.133Z,29.32
2022-08-05T08:03:14.037Z,29.35
2022-08-05T08:05:49.628Z,30.18
2022-08-05T08:08:20.063Z,30.45
2022-08-05T08:10:48.939Z,30.40
2022-08-05T08:13:22.126Z,31.05
2022-08-05T08:16:34.875Z,31.31
2022-08-05T08:18:43.403Z,31.40
2022-08-05T08:21:17.688Z,31.73
2022-08-05T08:24:02.764Z,31.89
2022-08-05T08:26:31.607Z,31.82
2022-08-05T08:30:03.397Z,31.77
2022-08-05T08:31:49.701Z,31.96
2022-08-05T08:34:30.749Z,32.02
2022-08-05T08:37:05.336Z,32.30
2022-08-05T08:39:32.624Z,32.36
2022-08-05T08:42:10.795Z,32.34
2022-08-05T08:45:24.012Z,32.97
2022-08-05T08:48:07.010Z,33.37
2022-08-05T08:51:07.675Z,33.20
2022-08-05T08:53:25.187Z,32.83
2022-08-05T08:56:03.865Z,32.70
2022-08-05T08:58:43.875Z,32.89
2022-08-05T09:01:16.273Z,33.09
2022-08-05T09:03:46.862Z,32.70
2022-08-05T09:06:18.630Z,32.90
2022-08-05T09:08:48.052Z,32.61
2022-08-05T09:11:15.398Z,32.59
2022-08-05T09:14:00.992Z,32.81
2022-08-05T09:16:30.694Z,32.48
2022-08-05T09:18:59.284Z,32.56
2022-08-05T09:22:30.916Z,32.74
2022-08-05T09:24:15.659Z,32.97
2022-08-05T09:26:46.351Z,33.03
2022-08-05T09:29:17.523Z,32.77
2022-08-05T09:32:41.210Z,33.03
2022-08-05T09:34:56.397Z,33.96
2022-08-05T09:38:12.731Z,34.17
2022-08-05T09:40:29.203Z,34.49
2022-08-05T09:42:56.028Z,33.91
2022-08-05T09:46:07.735Z,34.07
2022-08-05T09:48:26.975Z,34.04
2022-08-05T09:50:58.560Z,34.45
2022-08-05T09:53:54.380Z,34.54
2022-08-05T09:56:25.453Z,34.51
2022-08-05T09:59:04.306Z,34.97
2022-08-05T10:01:35.399Z,35.39
2022-08-05T10:04:16.022Z,34.64
2022-08-05T10:07:19.704Z,35.09
2022-08-05T10:10:13.971Z,35.38
2022-08-05T10:12:52.559Z,35.72
2022-08-05T10:15:28.843Z,35.59
2022-08-05T10:18:06.671Z,36.63
2022-08-05T10:20:35.503Z,36.64
2022-08-05T10:23:02.518Z,36.83
2022-08-05T10:25:30.294Z,36.31
2022-08-05T10:28:09.736Z,34.84
2022-08-05T10:32:49.112Z,34.47
2022-08-05T10:33:34.197Z,35.22
2022-08-05T10:36:04.779Z,36.03
2022-08-05T10:38:34.150Z,36.65
2022-08-05T10:41:23.461Z,36.81
2022-08-05T10:44:13.162Z,36.27
2022-08-05T10:46:55.308Z,36.51
2022-08-05T10:49:27.575Z,36.29
2022-08-05T10:52:05.352Z,35.75
2022-08-05T10:55:01.978Z,35.40
2022-08-05T10:58:06.042Z,35.79
2022-08-05T11:00:34.343Z,35.72
2022-08-05T11:03:23.023Z,36.30
2022-08-05T11:06:15.213Z,36.56
2022-08-05T11:09:24.185Z,36.84
2022-08-05T11:12:00.741Z,36.50
2022-08-05T11:14:57.598Z,36.47
2022-08-05T11:17:59.193Z,37.45
2022-08-05T11:20:43.956Z,37.64
2022-08-05T11:24:04.819Z,37.85
2022-08-05T11:26:27.998Z,38.07
2022-08-05T11:29:11.532Z,38.24
2022-08-05T11:31:58.825Z,38.51
2022-08-05T11:34:51.665Z,38.55
2022-08-05T11:38:28.240Z,37.28
2022-08-05T11:41:36.799Z,38.21
2022-08-05T11:44:06.778Z,38.62
2022-08-05T11:46:58.297Z,38.38
2022-08-05T11:49:27.648Z,38.74
2022-08-05T11:51:54.713Z,38.35
2022-08-05T11:54:33.972Z,38.52
2022-08-05T11:57:08.311Z,38.36
2022-08-05T11:59:51.972Z,38.50
2022-08-05T12:02:31.300Z,38.46
2022-08-05T12:05:07.083Z,38.79
2022-08-05T12:08:03.576Z,38.61
2022-08-05T12:10:43.263Z,38.81
2022-08-05T12:13:28.091Z,38.53
2022-08-05T12:16:14.674Z,39.09
2022-08-05T12:18:53.144Z,39.68
2022-08-05T12:21:50.829Z,39.82
2022-08-05T12:24:19.923Z,39.28
2022-08-05T12:26:50.156Z,38.82
2022-08-05T12:29:22.807Z,39.01
2022-08-05T12:32:01.766Z,39.34
2022-08-05T12:34:32.271Z,39.34
2022-08-05T12:37:03.299Z,39.49
2022-08-05T12:39:37.315Z,38.32
2022-08-05T12:42:29.855Z,38.10
2022-08-05T12:45:09.387Z,38.59
2022-08-05T12:48:01.074Z,38.28
2022-08-05T12:50:27.320Z,37.84
2022-08-05T12:53:10.054Z,37.46
2022-08-05T12:55:42.537Z,37.67
2022-08-05T12:58:39.088Z,38.30
2022-08-05T13:02:01.082Z,39.05
2022-08-05T13:04:07.438Z,39.45
2022-08-05T13:06:51.502Z,38.94
2022-08-05T13:09:28.293Z,38.96
2022-08-05T13:12:04.466Z,37.89
2022-08-05T13:14:46.594Z,38.07
2022-08-05T13:17:41.403Z,38.55
2022-08-05T13:20:20.313Z,38.21
2022-08-05T13:22:52.682Z,38.16
2022-08-05T13:25:22.259Z,37.88
2022-08-05T13:28:08.017Z,38.81
2022-08-05T13:30:39.101Z,38.83
2022-08-05T13:33:06.153Z,38.28
2022-08-05T13:35:50.314Z,38.83
2022-08-05T13:38:31.095Z,39.04
2022-08-05T13:41:03.933Z,38.67
2022-08-05T13:43:44.395Z,39.03
2022-08-05T13:46:30.823Z,39.39
2022-08-05T13:49:09.869Z,38.82
2022-08-05T13:51:47.131Z,38.52
2022-08-05T13:54:15.985Z,38.55
2022-08-05T13:56:51.535Z,38.97
2022-08-05T13:59:24.085Z,39.55
2022-08-05T14:02:01.532Z,39.48
2022-08-05T14:04:53.890Z,39.40
2022-08-05T14:07:56.907Z,39.37
2022-08-05T14:10:28.052Z,38.26
2022-08-05T14:12:58.620Z,38.91
2022-08-05T14:16:05.956Z,39.16
2022-08-05T14:18:17.330Z,39.01
2022-08-05T14:20:49.057Z,38.61
2022-08-05T14:23:24.871Z,38.61
2022-08-05T14:25:58.979Z,38.93
2022-08-05T14:28:29.789Z,39.39
2022-08-05T14:30:57.962Z,39.22
2022-08-05T14:33:25.161Z,39.41
2022-08-05T14:35:54.417Z,39.59
2022-08-05T14:38:31.592Z,39.61
2022-08-05T14:41:06.382Z,39.41
2022-08-05T14:44:00.053Z,39.48
2022-08-05T14:46:28.954Z,39.69
2022-08-05T14:49:03.481Z,39.80
2022-08-05T14:51:38.872Z,39.95
2022-08-05T14:54:27.664Z,39.80
2022-08-05T14:56:57.077Z,39.38
2022-08-05T14:59:24.410Z,38.86
2022-08-05T15:01:51.442Z,38.77
2022-08-05T15:04:22.193Z,38.82
2022-08-05T15:06:52.208Z,38.79
2022-08-05T15:09:52.533Z,38.41
2022-08-05T15:12:08.874Z,38.81
2022-08-05T15:14:48.336Z,38.36
2022-08-05T15:17:45.681Z,38.57
2022-08-05T15:20:18.282Z,37.69
2022-08-05T15:22:54.300Z,37.92
2022-08-05T15:25:41.170Z,37.85
2022-08-05T15:28:14.515Z,37.22
2022-08-05T15:30:43.426Z,36.95
2022-08-05T15:33:10.910Z,37.20
2022-08-05T15:35:45.162Z,37.00
2022-08-05T15:38:35.350Z,36.99
2022-08-05T15:41:23.188Z,36.67
2022-08-05T15:43:47.918Z,36.21
2022-08-05T15:46:14.861Z,35.79
2022-08-05T15:48:52.786Z,35.68
2022-08-05T15:52:13.654Z,35.67
2022-08-05T15:54:17.262Z,35.21
2022-08-05T15:56:44.153Z,35.18
2022-08-05T15:59:21.742Z,35.12
2022-08-05T16:01:52.307Z,34.66
2022-08-05T16:04:19.905Z,34.73
2022-08-05T16:06:46.693Z,34.69
2022-08-05T16:09:13.612Z,34.72
2022-08-05T16:11:43.442Z,34.37
2022-08-05T16:14:17.414Z,34.23
2022-08-05T16:16:44.863Z,34.40
2022-08-05T16:19:18.839Z,34.52
2022-08-05T16:22:00.528Z,34.37
2022-08-05T16:24:39.921Z,33.97
2022-08-05T16:27:09.412Z,34.06
2022-08-05T16:29:37.237Z,33.61
2022-08-05T16:32:09.554Z,33.44
2022-08-05T16:34:37.132Z,33.69
2022-08-05T16:38:02.364Z,33.52
2022-08-05T16:40:05.943Z,33.25
2022-08-05T16:42:34.639Z,32.88
2022-08-05T16:45:01.894Z,32.97
2022-08-05T16:47:40.833Z,33.01
2022-08-05T16:50:19.758Z,32.59
2022-08-05T16:52:47.253Z,32.38
2022-08-05T16:55:14.061Z,32.49
2022-08-05T16:57:52.877Z,32.52
2022-08-05T17:00:34.532Z,32.27
2022-08-05T17:03:15.315Z,32.38
2022-08-05T17:05:50.250Z,32.02
2022-08-05T17:08:36.748Z,31.93
2022-08-05T17:11:12.717Z,31.59
2022-08-05T17:13:44.517Z,31.35
2022-08-05T17:16:33.626Z,31.45
2022-08-05T17:19:00.554Z,30.85
2022-08-05T17:21:36.067Z,31.01
2022-08-05T17:24:30.375Z,30.67
2022-08-05T17:26:56.791Z,30.65
2022-08-05T17:29:33.339Z,30.51
2022-08-05T17:32:01.081Z,30.14
2022-08-05T17:34:30.123Z,30.15
2022-08-05T17:37:00.564Z,30.15
2022-08-05T17:39:34.656Z,29.86
2022-08-05T17:42:19.208Z,29.60
2022-08-05T17:44:50.450Z,29.47
2022-08-05T17:47:22.553Z,29.68
2022-08-05T17:50:03.940Z,29.53
2022-08-05T17:52:53.068Z,29.50
2022-08-05T17:55:22.253Z,29.26
2022-08-05T17:57:50.333Z,29.04
2022-08-05T18:00:18.574Z,28.96
2022-08-05T18:02:47.304Z,29.18
2022-08-05T18:05:16.934Z,28.89
2022-08-05T18:07:44.814Z,28.97
2022-08-05T18:10:20.583Z,28.84
2022-08-05T18:12:49.501Z,28.74
2022-08-05T18:15:16.385Z,28.90
2022-08-05T18:17:58.713Z,28.21
2022-08-05T18:20:32.140Z,28.52
2022-08-05T18:23:09.487Z,28.25
2022-08-05T18:25:38.815Z,28.15
2022-08-05T18:28:06.758Z,28.07
2022-08-05T18:30:34.271Z,27.98
2022-08-05T18:33:01.671Z,28.18
2022-08-05T18:36:00.527Z,28.20
2022-08-05T18:38:19.300Z,28.16
2022-08-05T18:41:56.462Z,27.82
2022-08-05T18:43:43.042Z,28.18
2022-08-05T18:46:20.039Z,28.15
2022-08-05T18:48:51.956Z,27.98
2022-08-05T18:52:05.935Z,27.94
2022-08-05T18:54:30.918Z,27.73
2022-08-05T18:57:01.042Z,27.82
2022-08-05T18:59:43.211Z,28.00
2022-08-05T19:02:38.125Z,27.73
2022-08-05T19:06:06.388Z,27.57
2022-08-05T19:07:55.371Z,27.82
2022-08-05T19:10:28.079Z,27.80
2022-08-05T19:12:57.020Z,27.59
2022-08-05T19:15:57.788Z,27.38
2022-08-05T19:18:13.619Z,27.23
2022-08-05T19:20:51.914Z,27.01
2022-08-05T19:24:03.251Z,26.93
2022-08-05T19:26:09.227Z,26.85
2022-08-05T19:28:43.409Z,26.82
2022-08-05T19:31:12.864Z,26.85
2022-08-05T19:33:48.285Z,26.88
2022-08-05T19:38:51.477Z,26.58
2022-08-05T19:41:21.869Z,26.27
2022-08-05T19:44:12.952Z,26.38
2022-08-05T19:46:41.337Z,26.39
2022-08-05T19:49:12.435Z,26.40
2022-08-05T19:52:05.155Z,26.30
2022-08-05T19:54:35.533Z,26.49
2022-08-05T19:57:10.131Z,26.26
2022-08-05T19:59:55.268Z,26.65
2022-08-05T20:02:31.498Z,26.66
2022-08-05T20:04:59.908Z,26.74
2022-08-05T20:07:46.270Z,26.49
2022-08-05T20:10:16.793Z,26.17
2022-08-05T20:12:47.685Z,26.42
2022-08-05T20:15:47.712Z,26.20
2022-08-05T20:18:10.738Z,26.15
2022-08-05T20:20:55.888Z,26.16
2022-08-05T20:23:40.055Z,26.13
2022-08-05T20:26:16.259Z,26.24
2022-08-05T20:28:55.627Z,26.07
2022-08-05T20:31:36.805Z,26.23
2022-08-05T20:34:10.719Z,26.00
2022-08-05T20:36:39.032Z,25.94
2022-08-05T20:39:12.979Z,26.01
2022-08-05T20:41:44.500Z,26.02
2022-08-05T20:44:29.720Z,25.82
2022-08-05T20:47:03.543Z,25.58
2022-08-05T20:49:33.273Z,25.58
2022-08-05T20:52:05.279Z,25.54
2022-08-05T20:54:43.700Z,25.49
2022-08-05T20:57:41.928Z,25.45
2022-08-05T21:00:40.919Z,25.52
2022-08-05T21:03:01.530Z,25.25
2022-08-05T21:05:47.690Z,25.21
2022-08-05T21:08:15.638Z,25.19
2022-08-05T21:10:49.064Z,25.22
2022-08-05T21:13:26.572Z,25.17
2022-08-05T21:16:03.554Z,25.26
2022-08-05T21:18:31.155Z,25.34
2022-08-05T21:20:58.571Z,25.32
2022-08-05T21:23:25.520Z,25.38
2022-08-05T21:25:55.343Z,25.46
2022-08-05T21:28:23.984Z,25.59
2022-08-05T21:30:57.442Z,25.40
2022-08-05T21:33:24.333Z,25.67
2022-08-05T21:36:04.493Z,25.70
2022-08-05T21:38:31.813Z,25.61
2022-08-05T21:40:58.672Z,25.67
2022-08-05T21:43:25.393Z,25.56
2022-08-05T21:45:57.867Z,25.64
2022-08-05T21:48:28.979Z,25.84
2022-08-05T21:50:58.991Z,25.83
2022-08-05T21:53:27.335Z,25.93
2022-08-05T21:56:05.055Z,25.90
2022-08-05T21:58:33.361Z,26.02
2022-08-05T22:01:00.613Z,26.03
2022-08-05T22:03:48.924Z,26.09
2022-08-05T22:06:16.429Z,26.12
2022-08-05T22:08:52.066Z,25.97
2022-08-05T22:11:34.814Z,26.22
2022-08-05T22:14:06.074Z,26.14
2022-08-05T22:16:51.178Z,26.18
2022-08-05T22:20:02.125Z,26.06
2022-08-05T22:22:06.769Z,26.14
2022-08-05T22:24:53.529Z,26.04
2022-08-05T22:28:09.595Z,26.18
2022-08-05T22:30:35.144Z,26.13
2022-08-05T22:33:15.628Z,26.16
2022-08-05T22:35:48.814Z,26.26
2022-08-05T22:38:16.720Z,26.13
2022-08-05T22:40:49.634Z,26.05
2022-08-05T22:43:17.178Z,25.95
2022-08-05T22:46:11.892Z,25.94
2022-08-05T22:48:39.963Z,25.91
2022-08-05T22:51:08.097Z,25.95
2022-08-05T22:53:42.945Z,25.70
2022-08-05T22:56:16.813Z,25.50
2022-08-05T22:58:43.955Z,25.63
2022-08-05T23:03:59.143Z,25.53
2022-08-05T23:06:22.710Z,25.43
2022-08-05T23:08:53.260Z,25.46
2022-08-05T23:11:20.056Z,25.53
2022-08-05T23:13:48.476Z,25.55
2022-08-05T23:16:33.289Z,25.52
2022-08-05T23:19:00.500Z,25.45
2022-08-05T23:21:42.924Z,25.41
2022-08-05T23:24:15.530Z,25.34
2022-08-05T23:26:42.313Z,25.45
2022-08-05T23:29:11.012Z,25.32
2022-08-05T23:31:42.743Z,25.33
2022-08-05T23:34:11.369Z,25.31
2022-08-05T23:36:40.319Z,25.28
2022-08-05T23:39:17.471Z,25.15
2022-08-05T23:41:51.483Z,25.09
2022-08-05T23:44:19.842Z,24.95
2022-08-05T23:46:51.893Z,24.83
2022-08-05T23:49:23.847Z,24.77
2022-08-05T23:52:19.194Z,24.83
2022-08-05T23:54:49.449Z,24.52
2022-08-05T23:57:16.232Z,24.54
